Terminal Aerodrome Forecast
Issued by NWS

Home | Current Version | Previous Version | Text Only | Print | Product List | Glossary On
Versions: 1 2 3 4 5 6 7 8 9 10 11 12 13 14
000
FTAK31 PAJN 260500
TAFAWG
TAF
PAWG 260532Z 2606/2706 33005KT P6SM FEW050 FEW120
     FM261000 VRB03KT P6SM BKN050
     FM261800 28006KT P6SM SCT030 BKN060
     FM270000 29006KT P6SM SCT060
      AMD LTD TO CLD VIS AND WIND 2606/2615=

USA.gov is the U.S. government's official web portal to all federal, state and local government web resources and services.